»·PEaware :: N614FT KIWA-KNYL

N614FT :: KIWA-KNYL

FLIGHT INFORMATION

Flight Status: Arrived
Operator: Privately registered:
United States
More flights under this callsign
Pilot: Carlos A. (16805)
Aircraft: PIPER PA-31/31P NAVAJO CHIEFTAIN
(PA31)
More flights by this aircraft type
Origin: KIWA Williams Gateway
United States
Destination: KNYL Yuma MCAS/Yuma Intl
United States
More flights between these airports :: More routes between these airports
Route: GLB
File this flight plan on PilotEdge
Remarks: Arizona Alphabet Challenge
Altitude:
(Current/Filed)
4,000ft
Speed:
(Current/Filed)
180kts
Departed: 04-Jun-23 05:52 PM
Arrived: 04-Jun-23 06:47 PM
Distance/Time
Traveled:
153nm/0:55
Distance/Time
To Go:
Arrived

Flight Plot

Page will automatically refresh every two minutes.

Flight plan parsing failed; only flown route is shown


Map Options




Map Legend


Flown Route
Filed Route
Departure Airport
Arrival Airport
Navaid (VOR, NDB)
Fix

Horizontal Profiles

Position Reports

Time Latitude Longitude Heading Altitude Ground
Speed
04-Jun-23 17:22 33.307988 -111.668521 89 1386ft 0kts
04-Jun-23 17:23 33.307988 -111.668519 89 1386ft 0kts
04-Jun-23 17:24 33.307988 -111.668517 89 1386ft 0kts
04-Jun-23 17:25 33.307988 -111.668516 89 1386ft 0kts
04-Jun-23 17:26 33.307988 -111.668514 89 1386ft 0kts
04-Jun-23 17:27 33.308011 -111.667884 86 1386ft 5kts
04-Jun-23 17:28 33.306560 -111.666446 102 1386ft 8kts
04-Jun-23 17:29 33.306395 -111.663315 103 1386ft 2kts
04-Jun-23 17:30 33.302869 -111.658902 135 1386ft 16kts
04-Jun-23 17:31 33.299730 -111.655177 136 1386ft 21kts
04-Jun-23 17:32 33.296623 -111.651395 134 1386ft 19kts
04-Jun-23 17:33 33.296523 -111.650083 69 1386ft 0kts
04-Jun-23 17:34 33.296555 -111.650035 47 1386ft 0kts
04-Jun-23 17:35 33.296555 -111.650035 47 1386ft 0kts
04-Jun-23 17:36 33.296555 -111.650035 47 1386ft 0kts
04-Jun-23 17:37 33.296555 -111.650035 47 1386ft 0kts
04-Jun-23 17:38 33.296555 -111.650035 47 1386ft 0kts
04-Jun-23 17:39 33.296555 -111.650035 47 1386ft 0kts
04-Jun-23 17:40 33.296560 -111.650030 47 1386ft 0kts
04-Jun-23 17:41 33.296566 -111.650021 47 1386ft 0kts
04-Jun-23 17:42 33.296573 -111.650013 47 1386ft 0kts
04-Jun-23 17:43 33.296576 -111.650009 47 1386ft 0kts
04-Jun-23 17:44 33.296577 -111.650008 47 1386ft 0kts
04-Jun-23 17:45 33.296577 -111.650007 47 1386ft 0kts
04-Jun-23 17:46 33.296578 -111.650006 47 1386ft 0kts
04-Jun-23 17:47 33.296579 -111.650005 47 1386ft 0kts
04-Jun-23 17:48 33.296580 -111.650004 47 1386ft 0kts
04-Jun-23 17:49 33.296580 -111.650003 47 1386ft 0kts
04-Jun-23 17:50 33.296972 -111.649571 47 1386ft 11kts
04-Jun-23 17:51 33.300081 -111.652288 314 1391ft 78kts
04-Jun-23 17:52 33.314899 -111.675596 248 2347ft 104kts
04-Jun-23 17:53 33.291169 -111.675623 148 2912ft 106kts
04-Jun-23 17:54 33.262122 -111.667814 172 3730ft 108kts
04-Jun-23 17:55 33.227657 -111.678720 229 4167ft 169kts
04-Jun-23 17:56 33.207730 -111.731732 246 4143ft 185kts
04-Jun-23 17:57 33.189072 -111.792232 253 3871ft 201kts
04-Jun-23 17:58 33.175061 -111.855195 251 4062ft 197kts
04-Jun-23 17:59 33.156349 -111.916762 257 3937ft 205kts
04-Jun-23 18:00 33.140363 -111.979117 250 3965ft 197kts
04-Jun-23 18:01 33.124583 -112.039431 250 4448ft 193kts
04-Jun-23 18:02 33.111060 -112.101193 255 4617ft 189kts
04-Jun-23 18:03 33.098064 -112.163592 259 4592ft 194kts
04-Jun-23 18:04 33.088729 -112.228686 251 4560ft 200kts
04-Jun-23 18:05 33.063117 -112.286076 239 4457ft 196kts
04-Jun-23 18:06 33.039452 -112.344313 243 4554ft 192kts
04-Jun-23 18:07 33.021277 -112.405264 256 4581ft 203kts
04-Jun-23 18:08 33.011303 -112.469234 257 4554ft 183kts
04-Jun-23 18:09 32.994661 -112.528146 242 4482ft 193kts
04-Jun-23 18:10 32.973041 -112.587350 252 4594ft 199kts
04-Jun-23 18:11 32.962227 -112.652238 256 4623ft 202kts
04-Jun-23 18:12 32.950955 -112.717449 258 4548ft 199kts
04-Jun-23 18:13 32.938291 -112.780958 252 4676ft 198kts
04-Jun-23 18:14 32.930552 -112.847676 261 4467ft 201kts
04-Jun-23 18:15 32.923774 -112.912849 259 4457ft 197kts
04-Jun-23 18:16 32.910235 -112.976075 255 4242ft 198kts
04-Jun-23 18:17 32.898240 -113.038383 258 4489ft 198kts
04-Jun-23 18:18 32.891421 -113.102712 264 4615ft 200kts
04-Jun-23 18:19 32.884623 -113.168105 261 4626ft 202kts
04-Jun-23 18:20 32.874283 -113.233956 256 4559ft 202kts
04-Jun-23 18:21 32.867863 -113.300224 265 4511ft 204kts
04-Jun-23 18:22 32.865880 -113.366760 262 4595ft 201kts
04-Jun-23 18:23 32.859056 -113.432977 261 4511ft 204kts
04-Jun-23 18:24 32.848994 -113.497898 257 4450ft 196kts
04-Jun-23 18:25 32.839285 -113.560379 257 4454ft 196kts
04-Jun-23 18:26 32.828062 -113.623640 254 4551ft 202kts
04-Jun-23 18:27 32.817491 -113.688817 259 4473ft 200kts
04-Jun-23 18:28 32.810144 -113.753733 258 4525ft 196kts
04-Jun-23 18:29 32.803504 -113.818625 257 4386ft 197kts
04-Jun-23 18:30 32.794550 -113.881613 253 4479ft 192kts
04-Jun-23 18:31 32.781603 -113.943524 260 4472ft 192kts
04-Jun-23 18:32 32.775169 -114.007103 256 4455ft 195kts
04-Jun-23 18:33 32.760744 -114.069442 245 4266ft 183kts
04-Jun-23 18:34 32.752252 -114.119749 252 4575ft 146kts
04-Jun-23 18:35 32.743505 -114.166915 255 4572ft 142kts
04-Jun-23 18:36 32.736997 -114.214077 256 4533ft 144kts
04-Jun-23 18:37 32.733820 -114.261845 265 4499ft 149kts
04-Jun-23 18:38 32.729348 -114.309885 254 4471ft 146kts
04-Jun-23 18:39 32.724382 -114.354932 257 4385ft 135kts
04-Jun-23 18:40 32.719589 -114.397642 255 4367ft 126kts
04-Jun-23 18:41 32.713271 -114.436999 245 4573ft 118kts
04-Jun-23 18:42 32.704415 -114.477381 254 4480ft 119kts
04-Jun-23 18:43 32.696384 -114.518148 228 3150ft 131kts
04-Jun-23 18:44 32.669833 -114.543871 224 1797ft 120kts
04-Jun-23 18:45 32.666161 -114.580559 266 417ft 102kts
04-Jun-23 18:46 32.665971 -114.599115 316 220ft 0kts
04-Jun-23 18:47 32.666636 -114.599773 8 220ft 0kts
04-Jun-23 18:48 32.666638 -114.599773 8 220ft 0kts
04-Jun-23 18:49 32.666782 -114.601595 277 220ft 14kts
04-Jun-23 18:50 32.667134 -114.602397 9 220ft 0kts
04-Jun-23 18:51 32.667137 -114.602396 9 220ft 0kts
04-Jun-23 18:52 32.667140 -114.602395 9 220ft 0kts
04-Jun-23 18:53 32.667144 -114.602395 9 220ft 0kts
04-Jun-23 18:54 32.667147 -114.602394 9 220ft 0kts
04-Jun-23 18:55 32.667148 -114.602394 9 220ft 0kts
04-Jun-23 18:56 32.667148 -114.602394 9 220ft 0kts

Navigation Log

Ident Type
Flight plan parsing failed, navigation log unavailable